createdAt,value
2023-03-10T00:00:08.849Z,98257.06
2023-03-10T00:02:36.626Z,98240.59
2023-03-10T00:05:04.788Z,98231.09
2023-03-10T00:07:32.493Z,98221.09
2023-03-10T00:10:00.132Z,98225.44
2023-03-10T00:12:27.927Z,98229.72
2023-03-10T00:14:57.379Z,98227.88
2023-03-10T00:17:25.114Z,98223.94
2023-03-10T00:19:52.817Z,98217.00
2023-03-10T00:22:20.537Z,98231.84
2023-03-10T00:24:48.268Z,98223.31
2023-03-10T00:27:15.931Z,98219.97
2023-03-10T00:29:43.631Z,98205.31
2023-03-10T00:32:12.707Z,98201.78
2023-03-10T00:34:40.406Z,98183.97
2023-03-10T00:37:08.100Z,98184.91
2023-03-10T00:39:35.735Z,98188.44
2023-03-10T00:42:03.492Z,98179.53
2023-03-10T00:44:31.181Z,98182.78
2023-03-10T00:46:58.831Z,98192.25
2023-03-10T00:49:27.909Z,98172.56
2023-03-10T00:51:55.540Z,98169.06
2023-03-10T00:54:23.216Z,98160.44
2023-03-10T00:56:50.888Z,98157.09
2023-03-10T00:59:18.559Z,98152.00
2023-03-10T01:01:46.303Z,98157.28
2023-03-10T01:04:16.170Z,98143.72
2023-03-10T01:06:47.563Z,98146.69
2023-03-10T01:09:15.524Z,98151.34
2023-03-10T01:11:43.359Z,98137.94
2023-03-10T01:14:14.315Z,98139.84
2023-03-10T01:16:41.965Z,98127.97
2023-03-10T01:19:09.952Z,98129.16
2023-03-10T01:21:39.290Z,98117.78
2023-03-10T01:24:08.929Z,98130.84
2023-03-10T01:26:36.637Z,98126.19
2023-03-10T01:29:04.366Z,98126.50
2023-03-10T01:31:32.170Z,98124.44
2023-03-10T01:33:59.895Z,98125.47
2023-03-10T01:36:28.047Z,98119.25
2023-03-10T01:38:57.456Z,98119.44
2023-03-10T01:41:26.833Z,98108.88
2023-03-10T01:43:56.128Z,98115.06
2023-03-10T01:46:44.603Z,98109.78
2023-03-10T01:49:17.975Z,98111.38
2023-03-10T01:51:50.077Z,98113.88
2023-03-10T01:54:20.342Z,98112.19
2023-03-10T01:56:51.069Z,98108.31
2023-03-10T01:59:19.458Z,98111.00
2023-03-10T02:01:47.384Z,98114.22
2023-03-10T02:04:18.348Z,98119.63
2023-03-10T02:06:47.520Z,98107.94
2023-03-10T02:09:16.082Z,98116.00
2023-03-10T02:11:44.151Z,98103.31
2023-03-10T02:14:13.492Z,98105.44
2023-03-10T02:16:41.315Z,98103.66
2023-03-10T02:19:15.917Z,98108.28
2023-03-10T02:21:45.573Z,98104.78
2023-03-10T02:24:17.460Z,98099.97
2023-03-10T02:26:51.656Z,98098.38
2023-03-10T02:29:24.034Z,98100.69
2023-03-10T02:31:52.449Z,98105.16
2023-03-10T02:34:20.388Z,98097.00
2023-03-10T02:36:48.051Z,98093.63
2023-03-10T02:39:15.771Z,98095.41
2023-03-10T02:41:45.434Z,98084.53
2023-03-10T02:44:15.623Z,98089.38
2023-03-10T02:46:44.717Z,98085.09
2023-03-10T02:49:12.564Z,98092.53
2023-03-10T02:51:43.182Z,98094.00
2023-03-10T02:54:11.311Z,98081.97
2023-03-10T02:56:39.704Z,98074.91
2023-03-10T02:59:08.098Z,98075.75
2023-03-10T03:01:36.227Z,98093.28
2023-03-10T03:04:05.427Z,98088.66
2023-03-10T03:06:33.137Z,98085.50
2023-03-10T03:09:00.852Z,98082.34
2023-03-10T03:11:28.851Z,98079.00
2023-03-10T03:13:56.564Z,98090.78
2023-03-10T03:16:24.292Z,98091.41
2023-03-10T03:18:52.175Z,98093.47
2023-03-10T03:21:21.513Z,98078.19
2023-03-10T03:23:49.379Z,98086.50
2023-03-10T03:26:19.207Z,98085.13
2023-03-10T03:28:46.942Z,98076.97
2023-03-10T03:31:16.760Z,98079.94
2023-03-10T03:33:44.828Z,98081.59
2023-03-10T03:36:12.763Z,98078.66
2023-03-10T03:38:41.887Z,98094.22
2023-03-10T03:41:10.276Z,98097.53
2023-03-10T03:43:37.988Z,98096.03
2023-03-10T03:46:06.241Z,98096.53
2023-03-10T03:48:34.884Z,98087.72
2023-03-10T03:51:03.377Z,98097.66
2023-03-10T03:53:31.652Z,98095.13
2023-03-10T03:56:00.840Z,98107.72
2023-03-10T03:58:28.592Z,98110.53
2023-03-10T04:00:56.294Z,98105.63
2023-03-10T04:03:24.089Z,98112.91
2023-03-10T04:05:51.818Z,98109.22
2023-03-10T04:08:19.491Z,98097.75
2023-03-10T04:10:51.674Z,98111.38
2023-03-10T04:13:21.028Z,98107.81
2023-03-10T04:15:48.792Z,98099.97
2023-03-10T04:18:16.532Z,98101.34
2023-03-10T04:20:44.183Z,98115.72
2023-03-10T04:23:11.809Z,98110.72
2023-03-10T04:25:42.231Z,98114.13
2023-03-10T04:28:09.986Z,98106.19
2023-03-10T04:30:39.207Z,98112.03
2023-03-10T04:33:07.631Z,98109.16
2023-03-10T04:35:35.318Z,98122.69
2023-03-10T04:38:03.987Z,98113.59
2023-03-10T04:40:31.656Z,98109.34
2023-03-10T04:42:59.408Z,98105.50
2023-03-10T04:45:27.132Z,98116.75
2023-03-10T04:47:56.222Z,98108.13
2023-03-10T04:50:23.909Z,98101.91
2023-03-10T04:52:51.655Z,98104.97
2023-03-10T04:55:19.439Z,98103.91
2023-03-10T04:57:47.175Z,98102.91
2023-03-10T05:00:15.263Z,98118.13
2023-03-10T05:02:43.434Z,98106.81
2023-03-10T05:05:13.196Z,98110.34
2023-03-10T05:07:41.335Z,98122.03
2023-03-10T05:10:10.276Z,98109.25
2023-03-10T05:12:38.725Z,98120.75
2023-03-10T05:15:07.694Z,98124.38
2023-03-10T05:17:35.392Z,98118.50
2023-03-10T05:20:04.102Z,98112.75
2023-03-10T05:22:33.098Z,98106.28
2023-03-10T05:25:00.829Z,98108.88
2023-03-10T05:27:28.509Z,98108.59
2023-03-10T05:29:56.270Z,98099.56
2023-03-10T05:32:24.076Z,98088.22
2023-03-10T05:34:52.536Z,98095.38
2023-03-10T05:37:20.263Z,98101.22
2023-03-10T05:39:49.275Z,98119.81
2023-03-10T05:42:16.987Z,98106.50
2023-03-10T05:44:44.646Z,98096.19
2023-03-10T05:47:14.001Z,98108.03
2023-03-10T05:49:41.683Z,98106.59
2023-03-10T05:52:09.399Z,98105.63
2023-03-10T05:54:37.355Z,98109.19
2023-03-10T05:57:06.871Z,98113.69
2023-03-10T05:59:34.650Z,98115.91
2023-03-10T06:02:02.380Z,98112.50
2023-03-10T06:04:32.252Z,98127.59
2023-03-10T06:07:00.761Z,98123.41
2023-03-10T06:09:28.610Z,98127.88
2023-03-10T06:11:56.255Z,98123.97
2023-03-10T06:14:25.780Z,98122.72
2023-03-10T06:16:54.956Z,98132.22
2023-03-10T06:19:23.830Z,98124.03
2023-03-10T06:21:51.588Z,98116.25
2023-03-10T06:24:19.394Z,98117.13
2023-03-10T06:26:47.103Z,98119.81
2023-03-10T06:29:14.795Z,98117.78
2023-03-10T06:31:43.907Z,98117.69
2023-03-10T06:34:11.705Z,98116.19
2023-03-10T06:36:40.408Z,98113.22
2023-03-10T06:39:08.228Z,98112.56
2023-03-10T06:41:36.740Z,98116.09
2023-03-10T06:44:04.472Z,98120.13
2023-03-10T06:46:32.247Z,98118.91
2023-03-10T06:49:01.281Z,98121.28
2023-03-10T06:51:28.930Z,98112.47
2023-03-10T06:53:57.577Z,98093.75
2023-03-10T06:56:25.295Z,98101.22
2023-03-10T06:58:53.011Z,98113.69
2023-03-10T07:01:22.771Z,98120.28
2023-03-10T07:03:50.581Z,98111.47
2023-03-10T07:06:19.652Z,98129.28
2023-03-10T07:08:47.428Z,98141.69
2023-03-10T07:11:15.448Z,98133.72
2023-03-10T07:13:43.242Z,98123.31
2023-03-10T07:16:11.154Z,98136.53
2023-03-10T07:18:38.846Z,98129.72
2023-03-10T07:21:08.742Z,98125.16
2023-03-10T07:23:37.995Z,98120.00
2023-03-10T07:26:08.604Z,98130.00
2023-03-10T07:28:36.835Z,98144.16
2023-03-10T07:31:05.431Z,98113.13
2023-03-10T07:33:33.277Z,98120.91
2023-03-10T07:36:01.119Z,98121.38
2023-03-10T07:38:28.848Z,98133.44
2023-03-10T07:40:58.369Z,98131.09
2023-03-10T07:43:26.783Z,98142.31
2023-03-10T07:45:54.804Z,98138.06
2023-03-10T07:48:22.507Z,98142.41
2023-03-10T07:50:56.955Z,98131.59
2023-03-10T07:53:24.619Z,98134.38
2023-03-10T07:55:52.544Z,98136.59
2023-03-10T07:58:21.938Z,98139.56
2023-03-10T08:00:54.948Z,98149.59
2023-03-10T08:03:22.816Z,98143.78
2023-03-10T08:05:50.625Z,98137.78
2023-03-10T08:08:18.786Z,98133.34
2023-03-10T08:10:46.494Z,98154.06
2023-03-10T08:13:14.603Z,98153.00
2023-03-10T08:15:43.746Z,98152.16
2023-03-10T08:18:11.476Z,98157.00
2023-03-10T08:20:40.594Z,98155.78
2023-03-10T08:23:08.431Z,98152.81
2023-03-10T08:25:36.581Z,98153.84
2023-03-10T08:28:04.405Z,98147.81
2023-03-10T08:30:32.099Z,98154.09
2023-03-10T08:33:01.271Z,98162.75
2023-03-10T08:35:29.094Z,98160.53
2023-03-10T08:37:56.805Z,98177.63
2023-03-10T08:40:24.725Z,98185.25
2023-03-10T08:42:53.117Z,98174.72
2023-03-10T08:45:21.118Z,98167.69
2023-03-10T08:47:48.813Z,98172.91
2023-03-10T08:50:18.077Z,98174.50
2023-03-10T08:52:45.845Z,98170.06
2023-03-10T08:55:13.554Z,98173.59
2023-03-10T08:57:41.257Z,98166.94
2023-03-10T09:00:12.567Z,98160.06
2023-03-10T09:02:40.531Z,98171.56
2023-03-10T09:05:10.466Z,98160.91
2023-03-10T09:07:39.553Z,98166.94
2023-03-10T09:10:07.569Z,98168.03
2023-03-10T09:12:39.003Z,98169.84
2023-03-10T09:15:07.880Z,98174.03
2023-03-10T09:17:35.623Z,98179.56
2023-03-10T09:20:06.411Z,98179.53
2023-03-10T09:22:34.091Z,98173.31
2023-03-10T09:25:03.239Z,98182.47
2023-03-10T09:27:30.960Z,98196.06
2023-03-10T09:30:00.658Z,98195.13
2023-03-10T09:32:29.309Z,98188.72
2023-03-10T09:34:57.065Z,98197.19
2023-03-10T09:37:24.709Z,98200.66
2023-03-10T09:39:52.645Z,98194.28
2023-03-10T09:42:39.045Z,98188.81
2023-03-10T09:45:26.781Z,98196.22
2023-03-10T09:48:06.250Z,98196.22
2023-03-10T09:50:36.167Z,98208.28
2023-03-10T09:53:09.053Z,98198.66
2023-03-10T09:55:47.590Z,98201.75
2023-03-10T09:58:28.053Z,98207.25
2023-03-10T10:00:55.829Z,98193.97
2023-03-10T10:03:25.289Z,98197.72
2023-03-10T10:05:55.341Z,98209.19
2023-03-10T10:08:28.438Z,98213.63
2023-03-10T10:10:58.352Z,98221.53
2023-03-10T10:13:30.542Z,98221.00
2023-03-10T10:16:21.239Z,98213.38
2023-03-10T10:18:52.452Z,98228.66
2023-03-10T10:21:25.971Z,98229.09
2023-03-10T10:23:56.026Z,98226.25
2023-03-10T10:26:26.786Z,98216.34
2023-03-10T10:28:56.993Z,98222.88
2023-03-10T10:31:27.319Z,98230.38
2023-03-10T10:33:57.630Z,98232.78
2023-03-10T10:36:27.801Z,98226.31
2023-03-10T10:38:56.443Z,98230.88
2023-03-10T10:41:27.327Z,98231.03
2023-03-10T10:43:59.129Z,98226.84
2023-03-10T10:46:29.288Z,98220.13
2023-03-10T10:49:05.936Z,98217.84
2023-03-10T10:51:35.968Z,98219.06
2023-03-10T10:54:06.302Z,98215.59
2023-03-10T10:56:34.103Z,98247.44
2023-03-10T10:59:06.685Z,98227.22
2023-03-10T11:01:53.084Z,98243.66
2023-03-10T11:04:21.857Z,98247.81
2023-03-10T11:06:50.904Z,98242.56
2023-03-10T11:09:20.971Z,98237.16
2023-03-10T11:11:55.385Z,98246.97
2023-03-10T11:14:35.621Z,98230.78
2023-03-10T11:17:08.429Z,98237.94
2023-03-10T11:19:49.696Z,98230.09
2023-03-10T11:22:26.590Z,98220.72
2023-03-10T11:24:57.239Z,98213.50
2023-03-10T11:27:28.088Z,98226.50
2023-03-10T11:30:05.608Z,98233.69
2023-03-10T11:32:40.991Z,98221.44
2023-03-10T11:35:17.711Z,98215.16
2023-03-10T11:37:48.537Z,98219.94
2023-03-10T11:40:19.732Z,98218.75
2023-03-10T11:42:52.580Z,98225.78
2023-03-10T11:45:29.145Z,98233.16
2023-03-10T11:48:06.860Z,98226.13
2023-03-10T11:50:41.198Z,98230.28
2023-03-10T11:53:13.555Z,98223.16
2023-03-10T11:55:42.340Z,98223.53
2023-03-10T11:58:19.983Z,98225.50
2023-03-10T12:00:50.356Z,98228.53
2023-03-10T12:03:21.928Z,98224.91
2023-03-10T12:05:53.404Z,98225.56
2023-03-10T12:08:23.925Z,98221.94
2023-03-10T12:10:52.328Z,98217.78
2023-03-10T12:13:24.478Z,98224.78
2023-03-10T12:15:57.236Z,98203.84
2023-03-10T12:18:26.908Z,98215.53
2023-03-10T12:21:16.218Z,98210.22
2023-03-10T12:23:45.273Z,98227.31
2023-03-10T12:26:13.069Z,98220.91
2023-03-10T12:28:40.822Z,98222.38
2023-03-10T12:31:11.427Z,98212.47
2023-03-10T12:33:47.324Z,98219.47
2023-03-10T12:36:17.874Z,98214.91
2023-03-10T12:38:48.101Z,98215.72
2023-03-10T12:41:46.984Z,98210.06
2023-03-10T12:44:33.368Z,98204.81
2023-03-10T12:47:10.619Z,98198.47
2023-03-10T12:49:45.434Z,98195.72
2023-03-10T12:52:22.906Z,98197.75
2023-03-10T12:55:02.978Z,98208.47
2023-03-10T12:57:35.396Z,98205.44
2023-03-10T13:00:07.212Z,98204.31
2023-03-10T13:02:39.383Z,98200.25
2023-03-10T13:05:15.036Z,98205.13
2023-03-10T13:07:46.648Z,98195.88
2023-03-10T13:10:18.320Z,98208.81
2023-03-10T13:12:49.339Z,98190.13
2023-03-10T13:15:24.878Z,98197.63
2023-03-10T13:17:55.176Z,98185.41
2023-03-10T13:20:23.794Z,98208.19
2023-03-10T13:22:55.732Z,98192.53
2023-03-10T13:25:23.566Z,98187.53
2023-03-10T13:27:53.788Z,98187.91
2023-03-10T13:30:23.114Z,98189.38
2023-03-10T13:32:55.049Z,98193.97
2023-03-10T13:35:26.108Z,98194.22
2023-03-10T13:38:12.250Z,98202.00
2023-03-10T13:40:41.478Z,98204.44
2023-03-10T13:43:26.557Z,98190.69
2023-03-10T13:45:55.824Z,98185.66
2023-03-10T13:48:24.393Z,98189.00
2023-03-10T13:51:05.688Z,98199.03
2023-03-10T13:53:33.508Z,98184.44
2023-03-10T13:56:01.263Z,98201.25
2023-03-10T13:58:30.285Z,98205.16
2023-03-10T14:01:00.772Z,98208.16
2023-03-10T14:03:30.996Z,98202.47
2023-03-10T14:05:59.135Z,98212.94
2023-03-10T14:08:30.867Z,98217.31
2023-03-10T14:11:23.671Z,98225.56
2023-03-10T14:13:52.722Z,98248.56
2023-03-10T14:16:20.445Z,98230.03
2023-03-10T14:18:48.179Z,98231.41
2023-03-10T14:21:30.008Z,98240.72
2023-03-10T14:24:03.906Z,98229.47
2023-03-10T14:26:32.590Z,98243.47
2023-03-10T14:29:02.977Z,98261.09
2023-03-10T14:31:30.679Z,98279.16
2023-03-10T14:33:58.379Z,98299.94
2023-03-10T14:36:26.165Z,98314.56
2023-03-10T14:38:53.843Z,98311.06
2023-03-10T14:41:24.526Z,98300.44
2023-03-10T14:43:52.800Z,98293.44
2023-03-10T14:46:22.145Z,98298.25
2023-03-10T14:48:50.017Z,98291.66
2023-03-10T14:51:34.683Z,98299.59
2023-03-10T14:54:03.752Z,98295.81
2023-03-10T14:56:31.869Z,98303.97
2023-03-10T14:59:02.251Z,98299.88
2023-03-10T15:01:31.869Z,98318.34
2023-03-10T15:03:59.601Z,98320.72
2023-03-10T15:06:27.245Z,98319.19
2023-03-10T15:08:54.930Z,98326.41
2023-03-10T15:11:36.191Z,98321.50
2023-03-10T15:14:05.595Z,98324.41
2023-03-10T15:16:34.663Z,98323.28
2023-03-10T15:19:02.374Z,98327.22
2023-03-10T15:21:30.027Z,98335.38
2023-03-10T15:23:57.673Z,98341.44
2023-03-10T15:26:25.335Z,98336.00
2023-03-10T15:28:53.211Z,98332.66
2023-03-10T15:31:21.140Z,98338.06
2023-03-10T15:33:50.508Z,98339.97
2023-03-10T15:36:19.160Z,98354.06
2023-03-10T15:38:46.882Z,98355.50
2023-03-10T15:41:14.778Z,98363.56
2023-03-10T15:43:42.474Z,98368.09
2023-03-10T15:46:10.523Z,98368.44
2023-03-10T15:48:38.271Z,98377.06
2023-03-10T15:51:10.448Z,98392.56
2023-03-10T15:53:38.462Z,98395.72
2023-03-10T15:56:07.240Z,98405.31
2023-03-10T15:58:35.084Z,98433.94
2023-03-10T16:01:07.660Z,98450.31
2023-03-10T16:03:36.239Z,98474.31
2023-03-10T16:06:04.050Z,98473.25
2023-03-10T16:08:37.337Z,98486.69
2023-03-10T16:11:06.534Z,98496.63
2023-03-10T16:13:34.263Z,98520.50
2023-03-10T16:16:06.184Z,98530.03
2023-03-10T16:18:34.365Z,98526.66
2023-03-10T16:21:03.371Z,98541.13
2023-03-10T16:23:34.136Z,98570.59
2023-03-10T16:26:06.884Z,98587.59
2023-03-10T16:28:34.896Z,98600.25
2023-03-10T16:31:03.736Z,98606.25
2023-03-10T16:33:32.040Z,98622.03
2023-03-10T16:36:00.328Z,98627.81
2023-03-10T16:38:28.369Z,98644.19
2023-03-10T16:40:57.951Z,98651.91
2023-03-10T16:43:29.266Z,98670.81
2023-03-10T16:46:07.655Z,98663.00
2023-03-10T16:48:37.302Z,98676.97
2023-03-10T16:51:19.371Z,98691.56
2023-03-10T16:53:47.244Z,98715.38
2023-03-10T16:56:16.739Z,98720.50
2023-03-10T16:58:44.539Z,98738.22
2023-03-10T17:01:12.273Z,98749.28
2023-03-10T17:03:40.527Z,98750.56
2023-03-10T17:06:09.937Z,98769.97
2023-03-10T17:08:37.845Z,98774.78
2023-03-10T17:11:06.316Z,98792.25
2023-03-10T17:13:36.679Z,98804.22
2023-03-10T17:16:12.415Z,98823.78
2023-03-10T17:18:40.201Z,98806.47
2023-03-10T17:21:15.069Z,98842.25
2023-03-10T17:23:43.145Z,98825.81
2023-03-10T17:26:11.455Z,98834.09
2023-03-10T17:28:41.590Z,98848.38
2023-03-10T17:31:10.011Z,98846.34
2023-03-10T17:33:37.675Z,98862.03
2023-03-10T17:36:06.521Z,98870.94
2023-03-10T17:38:34.269Z,98874.78
2023-03-10T17:41:04.262Z,98869.13
2023-03-10T17:43:34.598Z,98879.41
2023-03-10T17:46:06.212Z,98885.88
2023-03-10T17:48:34.426Z,98895.19
2023-03-10T17:51:02.191Z,98888.16
2023-03-10T17:53:30.626Z,98912.84
2023-03-10T17:55:58.651Z,98911.88
2023-03-10T17:58:26.985Z,98928.59
2023-03-10T18:00:54.885Z,98938.50
2023-03-10T18:03:24.062Z,98941.50
2023-03-10T18:05:51.791Z,98941.31
2023-03-10T18:08:19.497Z,98964.31
2023-03-10T18:10:47.187Z,98969.50
2023-03-10T18:13:14.906Z,98984.00
2023-03-10T18:15:42.659Z,98986.38
2023-03-10T18:18:10.384Z,99000.47
2023-03-10T18:20:39.443Z,99014.22
2023-03-10T18:23:07.182Z,99023.53
2023-03-10T18:25:34.906Z,99045.25
2023-03-10T18:28:02.620Z,99038.13
2023-03-10T18:30:30.289Z,99072.34
2023-03-10T18:32:57.977Z,99062.50
2023-03-10T18:35:25.647Z,99076.13
2023-03-10T18:37:55.631Z,99085.16
2023-03-10T18:40:23.592Z,99097.53
2023-03-10T18:42:51.251Z,99097.34
2023-03-10T18:45:18.983Z,99110.38
2023-03-10T18:47:46.976Z,99106.47
2023-03-10T18:50:15.198Z,99115.44
2023-03-10T18:52:43.039Z,99127.09
2023-03-10T18:55:13.150Z,99139.31
2023-03-10T18:57:41.170Z,99142.16
2023-03-10T19:00:14.428Z,99137.63
2023-03-10T19:02:42.464Z,99149.16
2023-03-10T19:05:13.288Z,99164.06
2023-03-10T19:07:41.089Z,99198.25
2023-03-10T19:10:10.072Z,99179.06
2023-03-10T19:12:39.341Z,99181.59
2023-03-10T19:15:09.205Z,99186.78
2023-03-10T19:17:37.730Z,99196.13
2023-03-10T19:20:07.380Z,99195.50
2023-03-10T19:22:35.169Z,99204.06
2023-03-10T19:25:03.369Z,99207.69
2023-03-10T19:27:31.325Z,99217.59
2023-03-10T19:30:00.843Z,99230.03
2023-03-10T19:32:29.050Z,99230.69
2023-03-10T19:34:56.757Z,99250.59
2023-03-10T19:37:24.384Z,99253.97
2023-03-10T19:39:52.438Z,99260.66
2023-03-10T19:42:20.086Z,99257.00
2023-03-10T19:44:48.062Z,99265.22
2023-03-10T19:47:19.194Z,99276.69
2023-03-10T19:49:46.961Z,99253.94
2023-03-10T19:52:14.603Z,99274.16
2023-03-10T19:54:42.264Z,99296.09
2023-03-10T19:57:13.109Z,99303.44
2023-03-10T19:59:41.549Z,99305.06
2023-03-10T20:02:12.689Z,99314.19
2023-03-10T20:04:42.058Z,99317.47
2023-03-10T20:07:09.889Z,99327.81
2023-03-10T20:09:37.583Z,99326.84
2023-03-10T20:12:05.743Z,99339.94
2023-03-10T20:14:33.402Z,99349.53
2023-03-10T20:17:01.093Z,99363.28
2023-03-10T20:19:28.751Z,99361.66
2023-03-10T20:21:57.751Z,99377.72
2023-03-10T20:24:25.418Z,99375.91
2023-03-10T20:26:53.048Z,99378.50
2023-03-10T20:29:20.781Z,99395.78
2023-03-10T20:31:48.491Z,99402.59
2023-03-10T20:34:18.408Z,99410.16
2023-03-10T20:36:46.138Z,99402.97
2023-03-10T20:39:15.172Z,99408.53
2023-03-10T20:41:45.004Z,99423.38
2023-03-10T20:44:14.147Z,99425.06
2023-03-10T20:46:42.715Z,99421.81
2023-03-10T20:49:11.295Z,99416.19
2023-03-10T20:51:39.642Z,99435.59
2023-03-10T20:54:07.573Z,99427.31
2023-03-10T20:56:36.722Z,99435.47
2023-03-10T20:59:04.541Z,99429.31
2023-03-10T21:01:32.424Z,99444.41
2023-03-10T21:04:00.188Z,99462.66
2023-03-10T21:06:28.944Z,99464.59
2023-03-10T21:08:56.612Z,99472.25
2023-03-10T21:11:24.312Z,99480.06
2023-03-10T21:13:53.394Z,99468.31
2023-03-10T21:16:21.435Z,99488.09
2023-03-10T21:18:49.161Z,99492.75
2023-03-10T21:21:16.856Z,99500.09
2023-03-10T21:23:44.619Z,99503.13
2023-03-10T21:26:13.449Z,99513.66
2023-03-10T21:28:41.381Z,99513.28
2023-03-10T21:31:10.476Z,99519.09
2023-03-10T21:33:38.329Z,99527.63
2023-03-10T21:36:06.708Z,99535.25
2023-03-10T21:38:36.487Z,99545.47
2023-03-10T21:41:05.590Z,99547.78
2023-03-10T21:43:33.323Z,99550.31
2023-03-10T21:46:01.044Z,99555.50
2023-03-10T21:48:30.121Z,99558.38
2023-03-10T21:50:57.813Z,99566.47
2023-03-10T21:53:26.727Z,99569.91
2023-03-10T21:55:54.876Z,99574.16
2023-03-10T21:58:24.878Z,99572.56
2023-03-10T22:00:55.711Z,99586.84
2023-03-10T22:03:23.853Z,99587.06
2023-03-10T22:05:53.024Z,99589.22
2023-03-10T22:08:21.025Z,99607.88
2023-03-10T22:10:48.841Z,99600.19
2023-03-10T22:13:16.525Z,99616.78
2023-03-10T22:15:44.404Z,99625.94
2023-03-10T22:18:12.060Z,99627.75
2023-03-10T22:20:39.784Z,99624.31
2023-03-10T22:23:08.876Z,99626.84
2023-03-10T22:25:36.632Z,99635.81
2023-03-10T22:28:04.826Z,99648.31
2023-03-10T22:30:32.641Z,99651.59
2023-03-10T22:33:00.349Z,99652.31
2023-03-10T22:35:28.043Z,99647.50
2023-03-10T22:37:55.897Z,99663.66
2023-03-10T22:40:26.186Z,99673.84
2023-03-10T22:42:54.456Z,99676.13
2023-03-10T22:45:23.756Z,99681.63
2023-03-10T22:47:53.806Z,99677.81
2023-03-10T22:50:23.458Z,99676.34
2023-03-10T22:52:51.304Z,99688.41
2023-03-10T22:55:23.535Z,99698.69
2023-03-10T22:57:52.821Z,99704.19
2023-03-10T23:00:22.230Z,99722.31
2023-03-10T23:02:52.119Z,99728.78
2023-03-10T23:05:20.061Z,99728.56
2023-03-10T23:07:48.033Z,99720.00
2023-03-10T23:10:18.432Z,99728.06
2023-03-10T23:12:46.200Z,99732.66
2023-03-10T23:15:24.932Z,99729.13
2023-03-10T23:17:54.017Z,99724.13
2023-03-10T23:20:24.256Z,99744.75
2023-03-10T23:22:52.097Z,99739.44
2023-03-10T23:25:25.271Z,99736.34
2023-03-10T23:27:52.956Z,99735.81
2023-03-10T23:30:22.099Z,99729.88
2023-03-10T23:32:51.449Z,99751.75
2023-03-10T23:35:21.397Z,99752.72
2023-03-10T23:37:49.128Z,99751.69
2023-03-10T23:40:18.242Z,99750.41
2023-03-10T23:42:46.462Z,99755.22
2023-03-10T23:45:15.818Z,99760.13
2023-03-10T23:47:45.230Z,99764.13
2023-03-10T23:50:17.685Z,99763.94
2023-03-10T23:52:45.516Z,99771.34
2023-03-10T23:55:14.773Z,99764.97
2023-03-10T23:57:42.692Z,99791.31
